sensor_id;sensor_type;location;lat;lon;timestamp;P1;durP1;ratioP1;P2;durP2;ratioP2
49175;SDS011;35012;47.200;9.748;2023-06-10T00:00:37;5.50;;;5.00;;
49175;SDS011;35012;47.200;9.748;2023-06-10T00:03:03;7.43;;;4.93;;
49175;SDS011;35012;47.200;9.748;2023-06-10T00:05:28;5.77;;;5.27;;
49175;SDS011;35012;47.200;9.748;2023-06-10T00:07:55;5.47;;;4.97;;
49175;SDS011;35012;47.200;9.748;2023-06-10T00:10:21;5.17;;;4.57;;
49175;SDS011;35012;47.200;9.748;2023-06-10T00:12:47;5.93;;;5.00;;
49175;SDS011;35012;47.200;9.748;2023-06-10T00:15:13;7.97;;;5.10;;
49175;SDS011;35012;47.200;9.748;2023-06-10T00:17:38;5.17;;;4.57;;
49175;SDS011;35012;47.200;9.748;2023-06-10T00:20:06;5.40;;;4.90;;
49175;SDS011;35012;47.200;9.748;2023-06-10T00:22:34;5.70;;;5.07;;
49175;SDS011;35012;47.200;9.748;2023-06-10T00:24:59;5.70;;;5.20;;
49175;SDS011;35012;47.200;9.748;2023-06-10T00:27:25;5.77;;;5.23;;
49175;SDS011;35012;47.200;9.748;2023-06-10T00:29:56;7.07;;;5.07;;
49175;SDS011;35012;47.200;9.748;2023-06-10T00:32:22;5.80;;;5.13;;
49175;SDS011;35012;47.200;9.748;2023-06-10T00:34:47;7.60;;;5.10;;
49175;SDS011;35012;47.200;9.748;2023-06-10T00:37:13;5.77;;;5.27;;
49175;SDS011;35012;47.200;9.748;2023-06-10T00:39:38;5.73;;;5.10;;
49175;SDS011;35012;47.200;9.748;2023-06-10T00:42:04;5.33;;;4.83;;
49175;SDS011;35012;47.200;9.748;2023-06-10T00:44:32;5.30;;;4.80;;
49175;SDS011;35012;47.200;9.748;2023-06-10T00:46:57;5.17;;;4.63;;
49175;SDS011;35012;47.200;9.748;2023-06-10T00:49:23;5.50;;;5.00;;
49175;SDS011;35012;47.200;9.748;2023-06-10T00:51:50;5.27;;;4.80;;
49175;SDS011;35012;47.200;9.748;2023-06-10T00:54:17;6.40;;;5.20;;
49175;SDS011;35012;47.200;9.748;2023-06-10T00:56:42;7.50;;;4.83;;
49175;SDS011;35012;47.200;9.748;2023-06-10T00:59:08;4.90;;;4.50;;
49175;SDS011;35012;47.200;9.748;2023-06-10T01:01:34;6.00;;;4.83;;
49175;SDS011;35012;47.200;9.748;2023-06-10T01:04:00;6.63;;;4.90;;
49175;SDS011;35012;47.200;9.748;2023-06-10T01:06:33;6.33;;;5.30;;
49175;SDS011;35012;47.200;9.748;2023-06-10T01:09:16;6.63;;;4.90;;
49175;SDS011;35012;47.200;9.748;2023-06-10T01:11:46;5.83;;;5.23;;
49175;SDS011;35012;47.200;9.748;2023-06-10T01:14:13;6.07;;;5.17;;
49175;SDS011;35012;47.200;9.748;2023-06-10T01:16:41;5.50;;;5.00;;
49175;SDS011;35012;47.200;9.748;2023-06-10T01:19:07;5.23;;;4.73;;
49175;SDS011;35012;47.200;9.748;2023-06-10T01:21:33;6.53;;;5.10;;
49175;SDS011;35012;47.200;9.748;2023-06-10T01:23:59;5.50;;;5.00;;
49175;SDS011;35012;47.200;9.748;2023-06-10T01:26:26;5.73;;;4.57;;
49175;SDS011;35012;47.200;9.748;2023-06-10T01:28:57;5.60;;;5.10;;
49175;SDS011;35012;47.200;9.748;2023-06-10T01:31:39;5.40;;;4.90;;
49175;SDS011;35012;47.200;9.748;2023-06-10T01:34:28;6.53;;;5.00;;
49175;SDS011;35012;47.200;9.748;2023-06-10T01:36:56;5.97;;;4.83;;
49175;SDS011;35012;47.200;9.748;2023-06-10T01:39:22;5.80;;;4.87;;
49175;SDS011;35012;47.200;9.748;2023-06-10T01:41:49;5.60;;;5.03;;
49175;SDS011;35012;47.200;9.748;2023-06-10T01:44:19;7.83;;;5.30;;
49175;SDS011;35012;47.200;9.748;2023-06-10T01:46:46;6.37;;;4.90;;
49175;SDS011;35012;47.200;9.748;2023-06-10T01:49:11;6.63;;;5.73;;
49175;SDS011;35012;47.200;9.748;2023-06-10T01:51:38;5.97;;;5.20;;
49175;SDS011;35012;47.200;9.748;2023-06-10T01:54:03;5.90;;;5.27;;
49175;SDS011;35012;47.200;9.748;2023-06-10T01:56:29;6.60;;;6.00;;
49175;SDS011;35012;47.200;9.748;2023-06-10T01:58:54;6.20;;;5.60;;
49175;SDS011;35012;47.200;9.748;2023-06-10T02:01:24;6.63;;;5.27;;
49175;SDS011;35012;47.200;9.748;2023-06-10T02:03:50;6.40;;;5.77;;
49175;SDS011;35012;47.200;9.748;2023-06-10T02:06:16;6.67;;;5.97;;
49175;SDS011;35012;47.200;9.748;2023-06-10T02:08:41;6.20;;;5.40;;
49175;SDS011;35012;47.200;9.748;2023-06-10T02:11:07;6.47;;;5.87;;
49175;SDS011;35012;47.200;9.748;2023-06-10T02:13:32;6.37;;;5.43;;
49175;SDS011;35012;47.200;9.748;2023-06-10T02:15:58;9.10;;;5.83;;
49175;SDS011;35012;47.200;9.748;2023-06-10T02:18:25;6.57;;;5.97;;
49175;SDS011;35012;47.200;9.748;2023-06-10T02:20:52;6.40;;;5.70;;
49175;SDS011;35012;47.200;9.748;2023-06-10T02:23:17;5.77;;;5.27;;
49175;SDS011;35012;47.200;9.748;2023-06-10T02:25:43;7.73;;;5.43;;
49175;SDS011;35012;47.200;9.748;2023-06-10T02:28:09;5.87;;;5.37;;
49175;SDS011;35012;47.200;9.748;2023-06-10T02:30:34;7.03;;;5.60;;
49175;SDS011;35012;47.200;9.748;2023-06-10T02:33:02;5.80;;;5.20;;
49175;SDS011;35012;47.200;9.748;2023-06-10T02:35:27;6.00;;;5.30;;
49175;SDS011;35012;47.200;9.748;2023-06-10T02:37:53;8.30;;;5.20;;
49175;SDS011;35012;47.200;9.748;2023-06-10T02:40:18;6.47;;;5.87;;
49175;SDS011;35012;47.200;9.748;2023-06-10T02:42:44;7.70;;;5.67;;
49175;SDS011;35012;47.200;9.748;2023-06-10T02:45:10;7.00;;;6.30;;
49175;SDS011;35012;47.200;9.748;2023-06-10T02:47:37;6.70;;;6.00;;
49175;SDS011;35012;47.200;9.748;2023-06-10T02:50:03;6.37;;;5.77;;
49175;SDS011;35012;47.200;9.748;2023-06-10T02:52:29;7.77;;;5.87;;
49175;SDS011;35012;47.200;9.748;2023-06-10T02:54:56;6.27;;;5.40;;
49175;SDS011;35012;47.200;9.748;2023-06-10T02:57:21;5.63;;;5.10;;
49175;SDS011;35012;47.200;9.748;2023-06-10T02:59:47;6.00;;;5.40;;
49175;SDS011;35012;47.200;9.748;2023-06-10T03:02:12;5.70;;;5.20;;
49175;SDS011;35012;47.200;9.748;2023-06-10T03:04:38;6.30;;;5.23;;
49175;SDS011;35012;47.200;9.748;2023-06-10T03:07:04;5.93;;;5.33;;
49175;SDS011;35012;47.200;9.748;2023-06-10T03:09:32;7.10;;;5.90;;
49175;SDS011;35012;47.200;9.748;2023-06-10T03:11:57;5.90;;;5.30;;
49175;SDS011;35012;47.200;9.748;2023-06-10T03:14:24;5.73;;;5.07;;
49175;SDS011;35012;47.200;9.748;2023-06-10T03:16:50;5.60;;;5.10;;
49175;SDS011;35012;47.200;9.748;2023-06-10T03:19:16;5.30;;;4.90;;
49175;SDS011;35012;47.200;9.748;2023-06-10T03:21:43;5.60;;;5.10;;
49175;SDS011;35012;47.200;9.748;2023-06-10T03:24:09;6.77;;;4.77;;
49175;SDS011;35012;47.200;9.748;2023-06-10T03:26:35;6.90;;;5.17;;
49175;SDS011;35012;47.200;9.748;2023-06-10T03:29:01;5.90;;;5.33;;
49175;SDS011;35012;47.200;9.748;2023-06-10T03:31:27;5.50;;;5.03;;
49175;SDS011;35012;47.200;9.748;2023-06-10T03:33:52;5.77;;;4.87;;
49175;SDS011;35012;47.200;9.748;2023-06-10T03:36:18;6.53;;;5.47;;
49175;SDS011;35012;47.200;9.748;2023-06-10T03:38:43;6.63;;;5.93;;
49175;SDS011;35012;47.200;9.748;2023-06-10T03:41:09;5.87;;;5.37;;
49175;SDS011;35012;47.200;9.748;2023-06-10T03:43:34;6.00;;;5.40;;
49175;SDS011;35012;47.200;9.748;2023-06-10T03:46:00;7.73;;;5.20;;
49175;SDS011;35012;47.200;9.748;2023-06-10T03:48:26;6.20;;;5.47;;
49175;SDS011;35012;47.200;9.748;2023-06-10T03:50:51;5.47;;;4.97;;
49175;SDS011;35012;47.200;9.748;2023-06-10T03:53:17;7.67;;;5.43;;
49175;SDS011;35012;47.200;9.748;2023-06-10T03:55:42;8.03;;;5.70;;
49175;SDS011;35012;47.200;9.748;2023-06-10T03:58:08;6.43;;;5.20;;
49175;SDS011;35012;47.200;9.748;2023-06-10T04:00:33;9.03;;;5.90;;
49175;SDS011;35012;47.200;9.748;2023-06-10T04:03:06;9.07;;;5.60;;
49175;SDS011;35012;47.200;9.748;2023-06-10T04:05:34;6.47;;;5.87;;
49175;SDS011;35012;47.200;9.748;2023-06-10T04:08:00;6.93;;;6.23;;
49175;SDS011;35012;47.200;9.748;2023-06-10T04:10:26;7.03;;;5.80;;
49175;SDS011;35012;47.200;9.748;2023-06-10T04:12:52;7.07;;;5.53;;
49175;SDS011;35012;47.200;9.748;2023-06-10T04:15:17;8.53;;;5.83;;
49175;SDS011;35012;47.200;9.748;2023-06-10T04:17:43;6.77;;;5.50;;
49175;SDS011;35012;47.200;9.748;2023-06-10T04:20:08;7.07;;;6.00;;
49175;SDS011;35012;47.200;9.748;2023-06-10T04:22:35;6.37;;;5.70;;
49175;SDS011;35012;47.200;9.748;2023-06-10T04:25:01;7.37;;;5.60;;
49175;SDS011;35012;47.200;9.748;2023-06-10T04:27:27;7.70;;;5.97;;
49175;SDS011;35012;47.200;9.748;2023-06-10T04:29:52;6.97;;;5.67;;
49175;SDS011;35012;47.200;9.748;2023-06-10T04:32:18;6.63;;;5.93;;
49175;SDS011;35012;47.200;9.748;2023-06-10T04:34:44;6.67;;;5.90;;
49175;SDS011;35012;47.200;9.748;2023-06-10T04:37:09;7.47;;;5.93;;
49175;SDS011;35012;47.200;9.748;2023-06-10T04:39:35;7.27;;;5.40;;
49175;SDS011;35012;47.200;9.748;2023-06-10T04:42:00;7.97;;;5.40;;
49175;SDS011;35012;47.200;9.748;2023-06-10T04:44:26;6.90;;;5.63;;
49175;SDS011;35012;47.200;9.748;2023-06-10T04:46:52;6.77;;;5.87;;
49175;SDS011;35012;47.200;9.748;2023-06-10T04:49:18;6.37;;;5.70;;
49175;SDS011;35012;47.200;9.748;2023-06-10T04:51:43;9.03;;;6.03;;
49175;SDS011;35012;47.200;9.748;2023-06-10T04:54:09;6.00;;;5.50;;
49175;SDS011;35012;47.200;9.748;2023-06-10T04:56:34;6.43;;;5.83;;
49175;SDS011;35012;47.200;9.748;2023-06-10T04:59:00;6.57;;;5.77;;
49175;SDS011;35012;47.200;9.748;2023-06-10T05:01:25;7.10;;;6.40;;
49175;SDS011;35012;47.200;9.748;2023-06-10T05:03:52;7.30;;;6.27;;
49175;SDS011;35012;47.200;9.748;2023-06-10T05:06:18;6.97;;;6.37;;
49175;SDS011;35012;47.200;9.748;2023-06-10T05:08:44;7.53;;;6.30;;
49175;SDS011;35012;47.200;9.748;2023-06-10T05:11:09;7.33;;;6.33;;
49175;SDS011;35012;47.200;9.748;2023-06-10T05:13:35;7.33;;;6.20;;
49175;SDS011;35012;47.200;9.748;2023-06-10T05:16:00;7.37;;;6.53;;
49175;SDS011;35012;47.200;9.748;2023-06-10T05:18:26;7.63;;;6.43;;
49175;SDS011;35012;47.200;9.748;2023-06-10T05:20:51;7.10;;;6.40;;
49175;SDS011;35012;47.200;9.748;2023-06-10T05:23:19;7.57;;;6.47;;
49175;SDS011;35012;47.200;9.748;2023-06-10T05:25:44;7.20;;;6.20;;
49175;SDS011;35012;47.200;9.748;2023-06-10T05:28:10;6.30;;;5.50;;
49175;SDS011;35012;47.200;9.748;2023-06-10T05:30:36;7.07;;;6.37;;
49175;SDS011;35012;47.200;9.748;2023-06-10T05:33:02;8.80;;;6.87;;
49175;SDS011;35012;47.200;9.748;2023-06-10T05:35:28;7.37;;;6.53;;
49175;SDS011;35012;47.200;9.748;2023-06-10T05:37:54;7.87;;;7.10;;
49175;SDS011;35012;47.200;9.748;2023-06-10T05:40:19;7.23;;;6.53;;
49175;SDS011;35012;47.200;9.748;2023-06-10T05:42:45;7.07;;;6.37;;
49175;SDS011;35012;47.200;9.748;2023-06-10T05:45:11;7.67;;;6.53;;
49175;SDS011;35012;47.200;9.748;2023-06-10T05:47:36;7.60;;;6.70;;
49175;SDS011;35012;47.200;9.748;2023-06-10T05:50:02;7.60;;;6.63;;
49175;SDS011;35012;47.200;9.748;2023-06-10T05:52:32;7.33;;;6.60;;
49175;SDS011;35012;47.200;9.748;2023-06-10T05:54:58;7.17;;;6.50;;
49175;SDS011;35012;47.200;9.748;2023-06-10T05:57:24;7.73;;;6.63;;
49175;SDS011;35012;47.200;9.748;2023-06-10T05:59:50;7.77;;;6.97;;
49175;SDS011;35012;47.200;9.748;2023-06-10T06:02:15;6.43;;;5.83;;
49175;SDS011;35012;47.200;9.748;2023-06-10T06:04:41;6.93;;;6.23;;
49175;SDS011;35012;47.200;9.748;2023-06-10T06:07:06;7.57;;;5.97;;
49175;SDS011;35012;47.200;9.748;2023-06-10T06:09:32;7.30;;;6.60;;
49175;SDS011;35012;47.200;9.748;2023-06-10T06:11:58;9.03;;;6.63;;
49175;SDS011;35012;47.200;9.748;2023-06-10T06:14:23;7.80;;;7.00;;
49175;SDS011;35012;47.200;9.748;2023-06-10T06:16:49;7.33;;;6.00;;
49175;SDS011;35012;47.200;9.748;2023-06-10T06:19:14;7.93;;;7.00;;
49175;SDS011;35012;47.200;9.748;2023-06-10T06:21:40;7.63;;;6.87;;
49175;SDS011;35012;47.200;9.748;2023-06-10T06:24:06;8.10;;;7.13;;
49175;SDS011;35012;47.200;9.748;2023-06-10T06:26:32;8.30;;;7.50;;
49175;SDS011;35012;47.200;9.748;2023-06-10T06:29:01;8.13;;;7.43;;
49175;SDS011;35012;47.200;9.748;2023-06-10T06:31:26;11.60;;;8.20;;
49175;SDS011;35012;47.200;9.748;2023-06-10T06:33:52;7.00;;;6.30;;
49175;SDS011;35012;47.200;9.748;2023-06-10T06:36:17;10.33;;;6.73;;
49175;SDS011;35012;47.200;9.748;2023-06-10T06:38:43;7.43;;;6.60;;
49175;SDS011;35012;47.200;9.748;2023-06-10T06:41:09;8.30;;;6.63;;
49175;SDS011;35012;47.200;9.748;2023-06-10T06:43:34;6.40;;;5.80;;
49175;SDS011;35012;47.200;9.748;2023-06-10T06:46:00;7.80;;;5.93;;
49175;SDS011;35012;47.200;9.748;2023-06-10T06:48:26;8.73;;;6.60;;
49175;SDS011;35012;47.200;9.748;2023-06-10T06:50:51;10.67;;;7.10;;
49175;SDS011;35012;47.200;9.748;2023-06-10T06:53:17;7.93;;;6.43;;
49175;SDS011;35012;47.200;9.748;2023-06-10T06:55:42;6.67;;;6.00;;
49175;SDS011;35012;47.200;9.748;2023-06-10T06:58:08;7.03;;;6.40;;
49175;SDS011;35012;47.200;9.748;2023-06-10T07:00:33;7.43;;;6.40;;
49175;SDS011;35012;47.200;9.748;2023-06-10T07:02:59;7.07;;;6.33;;
49175;SDS011;35012;47.200;9.748;2023-06-10T07:05:25;7.60;;;6.17;;
49175;SDS011;35012;47.200;9.748;2023-06-10T07:07:54;6.73;;;6.10;;
49175;SDS011;35012;47.200;9.748;2023-06-10T07:10:23;7.20;;;6.50;;
49175;SDS011;35012;47.200;9.748;2023-06-10T07:12:49;8.47;;;7.00;;
49175;SDS011;35012;47.200;9.748;2023-06-10T07:15:16;7.70;;;6.70;;
49175;SDS011;35012;47.200;9.748;2023-06-10T07:17:42;7.23;;;6.57;;
49175;SDS011;35012;47.200;9.748;2023-06-10T07:20:08;6.97;;;6.37;;
49175;SDS011;35012;47.200;9.748;2023-06-10T07:22:34;10.00;;;6.73;;
49175;SDS011;35012;47.200;9.748;2023-06-10T07:25:00;8.90;;;7.23;;
49175;SDS011;35012;47.200;9.748;2023-06-10T07:27:25;7.27;;;6.67;;
49175;SDS011;35012;47.200;9.748;2023-06-10T07:29:51;7.90;;;7.20;;
49175;SDS011;35012;47.200;9.748;2023-06-10T07:32:16;8.00;;;7.20;;
49175;SDS011;35012;47.200;9.748;2023-06-10T07:34:42;7.90;;;6.80;;
49175;SDS011;35012;47.200;9.748;2023-06-10T07:37:08;7.33;;;6.63;;
49175;SDS011;35012;47.200;9.748;2023-06-10T07:39:33;8.27;;;6.93;;
49175;SDS011;35012;47.200;9.748;2023-06-10T07:41:59;6.97;;;6.37;;
49175;SDS011;35012;47.200;9.748;2023-06-10T07:44:27;7.30;;;6.70;;
49175;SDS011;35012;47.200;9.748;2023-06-10T07:46:52;7.17;;;6.47;;
49175;SDS011;35012;47.200;9.748;2023-06-10T07:49:18;6.70;;;6.00;;
49175;SDS011;35012;47.200;9.748;2023-06-10T07:51:44;7.27;;;6.67;;
49175;SDS011;35012;47.200;9.748;2023-06-10T07:54:09;7.63;;;6.93;;
49175;SDS011;35012;47.200;9.748;2023-06-10T07:56:37;7.73;;;6.83;;
49175;SDS011;35012;47.200;9.748;2023-06-10T07:59:03;6.77;;;6.17;;
49175;SDS011;35012;47.200;9.748;2023-06-10T08:01:28;7.17;;;6.50;;
49175;SDS011;35012;47.200;9.748;2023-06-10T08:03:55;6.77;;;6.07;;
49175;SDS011;35012;47.200;9.748;2023-06-10T08:06:20;6.30;;;5.80;;
49175;SDS011;35012;47.200;9.748;2023-06-10T08:08:46;7.07;;;6.40;;
49175;SDS011;35012;47.200;9.748;2023-06-10T08:11:11;9.73;;;6.40;;
49175;SDS011;35012;47.200;9.748;2023-06-10T08:13:37;8.20;;;6.37;;
49175;SDS011;35012;47.200;9.748;2023-06-10T08:16:03;6.97;;;6.27;;
49175;SDS011;35012;47.200;9.748;2023-06-10T08:18:29;8.57;;;6.87;;
49175;SDS011;35012;47.200;9.748;2023-06-10T08:20:54;7.90;;;6.93;;
49175;SDS011;35012;47.200;9.748;2023-06-10T08:23:20;7.17;;;6.57;;
49175;SDS011;35012;47.200;9.748;2023-06-10T08:25:45;7.73;;;6.63;;
49175;SDS011;35012;47.200;9.748;2023-06-10T08:28:11;7.10;;;6.50;;
49175;SDS011;35012;47.200;9.748;2023-06-10T08:30:37;7.33;;;6.63;;
49175;SDS011;35012;47.200;9.748;2023-06-10T08:33:02;6.97;;;6.33;;
49175;SDS011;35012;47.200;9.748;2023-06-10T08:35:28;7.67;;;6.60;;
49175;SDS011;35012;47.200;9.748;2023-06-10T08:37:53;8.07;;;6.83;;
49175;SDS011;35012;47.200;9.748;2023-06-10T08:40:19;7.40;;;6.70;;
49175;SDS011;35012;47.200;9.748;2023-06-10T08:45:27;8.03;;;7.23;;
49175;SDS011;35012;47.200;9.748;2023-06-10T08:47:56;7.37;;;6.60;;
49175;SDS011;35012;47.200;9.748;2023-06-10T08:50:22;7.57;;;6.87;;
49175;SDS011;35012;47.200;9.748;2023-06-10T08:52:48;7.47;;;6.70;;
49175;SDS011;35012;47.200;9.748;2023-06-10T08:55:21;7.67;;;6.77;;
49175;SDS011;35012;47.200;9.748;2023-06-10T08:57:51;8.27;;;7.47;;
49175;SDS011;35012;47.200;9.748;2023-06-10T09:00:17;10.10;;;7.20;;
49175;SDS011;35012;47.200;9.748;2023-06-10T09:02:43;9.07;;;8.17;;
49175;SDS011;35012;47.200;9.748;2023-06-10T09:05:09;7.83;;;7.03;;
49175;SDS011;35012;47.200;9.748;2023-06-10T09:07:35;8.33;;;7.53;;
49175;SDS011;35012;47.200;9.748;2023-06-10T09:10:02;8.20;;;7.50;;
49175;SDS011;35012;47.200;9.748;2023-06-10T09:12:29;8.07;;;7.27;;
49175;SDS011;35012;47.200;9.748;2023-06-10T09:14:55;9.23;;;7.50;;
49175;SDS011;35012;47.200;9.748;2023-06-10T09:17:21;7.93;;;7.23;;
49175;SDS011;35012;47.200;9.748;2023-06-10T09:19:47;8.50;;;7.63;;
49175;SDS011;35012;47.200;9.748;2023-06-10T09:22:12;8.23;;;7.40;;
49175;SDS011;35012;47.200;9.748;2023-06-10T09:24:38;8.10;;;7.10;;
49175;SDS011;35012;47.200;9.748;2023-06-10T09:27:07;9.57;;;7.13;;
49175;SDS011;35012;47.200;9.748;2023-06-10T09:29:45;8.27;;;7.47;;
49175;SDS011;35012;47.200;9.748;2023-06-10T09:32:18;7.57;;;6.87;;
49175;SDS011;35012;47.200;9.748;2023-06-10T09:34:44;8.60;;;7.37;;
49175;SDS011;35012;47.200;9.748;2023-06-10T09:37:11;9.87;;;9.00;;
49175;SDS011;35012;47.200;9.748;2023-06-10T09:39:38;7.77;;;7.07;;
49175;SDS011;35012;47.200;9.748;2023-06-10T09:42:15;7.73;;;7.03;;
49175;SDS011;35012;47.200;9.748;2023-06-10T09:44:50;8.10;;;7.40;;
49175;SDS011;35012;47.200;9.748;2023-06-10T09:47:20;8.10;;;7.30;;
49175;SDS011;35012;47.200;9.748;2023-06-10T09:49:46;7.97;;;7.27;;
49175;SDS011;35012;47.200;9.748;2023-06-10T09:52:12;8.10;;;7.30;;
49175;SDS011;35012;47.200;9.748;2023-06-10T09:54:37;8.53;;;7.10;;
49175;SDS011;35012;47.200;9.748;2023-06-10T09:57:06;7.53;;;6.83;;
49175;SDS011;35012;47.200;9.748;2023-06-10T09:59:33;8.00;;;7.30;;
49175;SDS011;35012;47.200;9.748;2023-06-10T10:01:59;8.03;;;7.33;;
49175;SDS011;35012;47.200;9.748;2023-06-10T10:04:25;8.23;;;7.47;;
49175;SDS011;35012;47.200;9.748;2023-06-10T10:06:51;7.37;;;6.70;;
49175;SDS011;35012;47.200;9.748;2023-06-10T10:09:17;7.67;;;6.97;;
49175;SDS011;35012;47.200;9.748;2023-06-10T10:11:43;8.97;;;6.83;;
49175;SDS011;35012;47.200;9.748;2023-06-10T10:14:09;7.63;;;6.93;;
49175;SDS011;35012;47.200;9.748;2023-06-10T10:16:35;8.57;;;7.77;;
49175;SDS011;35012;47.200;9.748;2023-06-10T10:19:13;7.93;;;7.23;;
49175;SDS011;35012;47.200;9.748;2023-06-10T10:21:46;8.13;;;7.33;;
49175;SDS011;35012;47.200;9.748;2023-06-10T10:24:18;8.07;;;7.30;;
49175;SDS011;35012;47.200;9.748;2023-06-10T10:26:47;7.87;;;7.10;;
49175;SDS011;35012;47.200;9.748;2023-06-10T10:31:59;7.78;;;7.07;;
49175;SDS011;35012;47.200;9.748;2023-06-10T10:34:35;7.63;;;6.90;;
49175;SDS011;35012;47.200;9.748;2023-06-10T10:37:07;6.88;;;6.28;;
49175;SDS011;35012;47.200;9.748;2023-06-10T10:39:33;7.18;;;6.53;;
49175;SDS011;35012;47.200;9.748;2023-06-10T10:41:59;6.75;;;6.07;;
49175;SDS011;35012;47.200;9.748;2023-06-10T10:44:25;6.38;;;5.78;;
49175;SDS011;35012;47.200;9.748;2023-06-10T10:46:51;6.82;;;6.18;;
49175;SDS011;35012;47.200;9.748;2023-06-10T10:49:19;6.43;;;5.82;;
49175;SDS011;35012;47.200;9.748;2023-06-10T10:51:55;6.50;;;6.00;;
49175;SDS011;35012;47.200;9.748;2023-06-10T10:54:27;6.55;;;6.00;;
49175;SDS011;35012;47.200;9.748;2023-06-10T11:05:10;6.50;;;5.90;;
49175;SDS011;35012;47.200;9.748;2023-06-10T11:07:51;6.43;;;5.90;;
49175;SDS011;35012;47.200;9.748;2023-06-10T11:10:19;6.38;;;5.78;;
49175;SDS011;35012;47.200;9.748;2023-06-10T11:12:54;5.93;;;5.43;;
49175;SDS011;35012;47.200;9.748;2023-06-10T11:15:24;5.65;;;5.18;;
49175;SDS011;35012;47.200;9.748;2023-06-10T11:28:37;5.45;;;4.95;;
49175;SDS011;35012;47.200;9.748;2023-06-10T11:31:03;5.72;;;5.28;;
49175;SDS011;35012;47.200;9.748;2023-06-10T11:33:28;5.93;;;5.20;;
49175;SDS011;35012;47.200;9.748;2023-06-10T11:35:54;6.07;;;5.50;;
49175;SDS011;35012;47.200;9.748;2023-06-10T11:38:20;5.78;;;5.28;;
49175;SDS011;35012;47.200;9.748;2023-06-10T11:40:48;5.93;;;5.43;;
49175;SDS011;35012;47.200;9.748;2023-06-10T11:43:17;5.60;;;5.20;;
49175;SDS011;35012;47.200;9.748;2023-06-10T11:45:43;6.35;;;5.45;;
49175;SDS011;35012;47.200;9.748;2023-06-10T11:48:09;5.70;;;5.20;;
49175;SDS011;35012;47.200;9.748;2023-06-10T11:50:35;6.53;;;5.85;;
49175;SDS011;35012;47.200;9.748;2023-06-10T11:53:01;6.72;;;6.13;;
49175;SDS011;35012;47.200;9.748;2023-06-10T11:55:43;6.60;;;5.60;;
49175;SDS011;35012;47.200;9.748;2023-06-10T11:58:13;6.55;;;5.85;;
49175;SDS011;35012;47.200;9.748;2023-06-10T12:00:44;7.07;;;6.38;;
49175;SDS011;35012;47.200;9.748;2023-06-10T12:03:10;6.45;;;5.85;;
49175;SDS011;35012;47.200;9.748;2023-06-10T12:05:36;7.07;;;5.15;;
49175;SDS011;35012;47.200;9.748;2023-06-10T12:08:08;6.32;;;5.68;;
49175;SDS011;35012;47.200;9.748;2023-06-10T12:10:43;5.82;;;5.30;;
49175;SDS011;35012;47.200;9.748;2023-06-10T12:13:09;6.25;;;5.40;;
49175;SDS011;35012;47.200;9.748;2023-06-10T12:15:35;6.13;;;5.53;;
49175;SDS011;35012;47.200;9.748;2023-06-10T12:18:01;5.70;;;5.30;;
49175;SDS011;35012;47.200;9.748;2023-06-10T12:20:29;7.85;;;6.97;;
49175;SDS011;35012;47.200;9.748;2023-06-10T12:22:56;6.03;;;5.43;;
49175;SDS011;35012;47.200;9.748;2023-06-10T12:25:25;6.13;;;5.40;;
49175;SDS011;35012;47.200;9.748;2023-06-10T12:27:52;6.40;;;5.50;;
49175;SDS011;35012;47.200;9.748;2023-06-10T12:30:22;5.90;;;5.30;;
49175;SDS011;35012;47.200;9.748;2023-06-10T12:32:49;5.97;;;5.38;;
49175;SDS011;35012;47.200;9.748;2023-06-10T12:35:25;6.03;;;5.53;;
49175;SDS011;35012;47.200;9.748;2023-06-10T12:37:55;6.10;;;5.50;;
49175;SDS011;35012;47.200;9.748;2023-06-10T12:40:25;8.10;;;5.25;;
49175;SDS011;35012;47.200;9.748;2023-06-10T12:42:58;5.93;;;4.97;;
49175;SDS011;35012;47.200;9.748;2023-06-10T12:45:28;5.60;;;5.10;;
49175;SDS011;35012;47.200;9.748;2023-06-10T12:48:07;7.00;;;5.20;;
49175;SDS011;35012;47.200;9.748;2023-06-10T12:50:39;5.47;;;4.97;;
49175;SDS011;35012;47.200;9.748;2023-06-10T12:53:06;5.28;;;4.80;;
49175;SDS011;35012;47.200;9.748;2023-06-10T12:55:32;7.20;;;5.00;;
49175;SDS011;35012;47.200;9.748;2023-06-10T12:57:58;5.80;;;5.20;;
49175;SDS011;35012;47.200;9.748;2023-06-10T13:00:25;5.60;;;5.13;;
49175;SDS011;35012;47.200;9.748;2023-06-10T13:02:54;6.00;;;5.50;;
49175;SDS011;35012;47.200;9.748;2023-06-10T13:05:19;18.98;;;8.80;;
49175;SDS011;35012;47.200;9.748;2023-06-10T13:07:45;24.63;;;10.23;;
49175;SDS011;35012;47.200;9.748;2023-06-10T13:10:12;12.18;;;8.23;;
49175;SDS011;35012;47.200;9.748;2023-06-10T13:12:41;20.83;;;10.63;;
49175;SDS011;35012;47.200;9.748;2023-06-10T13:15:07;14.03;;;9.40;;
49175;SDS011;35012;47.200;9.748;2023-06-10T13:17:33;15.83;;;9.37;;
49175;SDS011;35012;47.200;9.748;2023-06-10T13:19:59;12.83;;;9.20;;
49175;SDS011;35012;47.200;9.748;2023-06-10T13:22:26;10.40;;;7.77;;
49175;SDS011;35012;47.200;9.748;2023-06-10T13:24:52;12.00;;;8.17;;
49175;SDS011;35012;47.200;9.748;2023-06-10T13:27:17;9.30;;;8.13;;
49175;SDS011;35012;47.200;9.748;2023-06-10T13:29:43;9.83;;;8.40;;
49175;SDS011;35012;47.200;9.748;2023-06-10T13:32:08;8.37;;;7.40;;
49175;SDS011;35012;47.200;9.748;2023-06-10T13:34:35;12.13;;;8.67;;
49175;SDS011;35012;47.200;9.748;2023-06-10T13:37:01;8.47;;;7.67;;
49175;SDS011;35012;47.200;9.748;2023-06-10T13:39:28;8.57;;;7.80;;
49175;SDS011;35012;47.200;9.748;2023-06-10T13:41:54;10.23;;;8.13;;
49175;SDS011;35012;47.200;9.748;2023-06-10T13:44:19;10.40;;;9.40;;
49175;SDS011;35012;47.200;9.748;2023-06-10T13:46:45;9.17;;;8.37;;
49175;SDS011;35012;47.200;9.748;2023-06-10T13:49:10;10.70;;;8.77;;
49175;SDS011;35012;47.200;9.748;2023-06-10T13:51:36;9.53;;;8.63;;
49175;SDS011;35012;47.200;9.748;2023-06-10T13:54:02;9.47;;;8.53;;
49175;SDS011;35012;47.200;9.748;2023-06-10T13:56:27;10.57;;;9.57;;
49175;SDS011;35012;47.200;9.748;2023-06-10T13:58:53;11.03;;;9.97;;
49175;SDS011;35012;47.200;9.748;2023-06-10T14:01:19;10.33;;;9.43;;
49175;SDS011;35012;47.200;9.748;2023-06-10T14:03:44;10.37;;;8.03;;
49175;SDS011;35012;47.200;9.748;2023-06-10T14:06:10;9.60;;;8.70;;
49175;SDS011;35012;47.200;9.748;2023-06-10T14:08:38;8.60;;;7.80;;
49175;SDS011;35012;47.200;9.748;2023-06-10T14:11:03;8.00;;;7.20;;
49175;SDS011;35012;47.200;9.748;2023-06-10T14:13:29;7.63;;;6.33;;
49175;SDS011;35012;47.200;9.748;2023-06-10T14:15:54;4.97;;;4.57;;
49175;SDS011;35012;47.200;9.748;2023-06-10T14:18:20;4.37;;;4.00;;
49175;SDS011;35012;47.200;9.748;2023-06-10T14:20:45;3.83;;;3.53;;
49175;SDS011;35012;47.200;9.748;2023-06-10T14:23:11;4.93;;;3.77;;
49175;SDS011;35012;47.200;9.748;2023-06-10T14:25:36;6.37;;;3.50;;
49175;SDS011;35012;47.200;9.748;2023-06-10T14:28:02;3.90;;;3.00;;
49175;SDS011;35012;47.200;9.748;2023-06-10T14:30:28;5.43;;;3.00;;
49175;SDS011;35012;47.200;9.748;2023-06-10T14:32:53;8.57;;;4.07;;
49175;SDS011;35012;47.200;9.748;2023-06-10T14:35:19;12.70;;;6.63;;
49175;SDS011;35012;47.200;9.748;2023-06-10T14:37:45;9.43;;;6.93;;
49175;SDS011;35012;47.200;9.748;2023-06-10T14:40:11;13.67;;;8.43;;
49175;SDS011;35012;47.200;9.748;2023-06-10T14:42:37;11.63;;;6.00;;
49175;SDS011;35012;47.200;9.748;2023-06-10T14:45:02;11.40;;;7.77;;
49175;SDS011;35012;47.200;9.748;2023-06-10T14:47:29;11.27;;;7.33;;
49175;SDS011;35012;47.200;9.748;2023-06-10T14:49:54;15.47;;;9.60;;
49175;SDS011;35012;47.200;9.748;2023-06-10T14:52:20;12.60;;;9.00;;
49175;SDS011;35012;47.200;9.748;2023-06-10T14:54:45;12.53;;;8.67;;
49175;SDS011;35012;47.200;9.748;2023-06-10T14:57:11;12.13;;;8.83;;
49175;SDS011;35012;47.200;9.748;2023-06-10T14:59:36;7.40;;;6.53;;
49175;SDS011;35012;47.200;9.748;2023-06-10T15:02:02;9.60;;;6.90;;
49175;SDS011;35012;47.200;9.748;2023-06-10T15:04:28;6.73;;;6.13;;
49175;SDS011;35012;47.200;9.748;2023-06-10T15:06:54;10.00;;;7.83;;